Terminal Aerodrome Forecast
Issued by NWS Binghamton, NY

Home | Current Version | Previous Version | Text Only | Print | Product List | Glossary On
Versions: 1 2 3 4 5 6 7 8 9 10 11 12 13 14 15
000
FTUS41 KBGM 071730
TAFSYR
TAF
KSYR 071730Z 0718/0818 21010KT P6SM SCT030 BKN040
     FM072000 24008KT P6SM SCT040
     FM080400 24008KT 5SM SHRA BR OVC025
     FM080800 32008KT P6SM OVC020
     FM081300 33008KT P6SM SCT040=

USA.gov is the U.S. government's official web portal to all federal, state and local government web resources and services.